sensor_id;sensor_type;location;lat;lon;timestamp;P1;durP1;ratioP1;P2;durP2;ratioP2
18176;SDS011;9213;50.858;3.964;2023-03-31T00:01:16;16.30;;;3.53;;
18176;SDS011;9213;50.858;3.964;2023-03-31T00:03:44;11.70;;;2.73;;
18176;SDS011;9213;50.858;3.964;2023-03-31T00:06:12;19.27;;;3.23;;
18176;SDS011;9213;50.858;3.964;2023-03-31T00:08:42;14.57;;;3.23;;
18176;SDS011;9213;50.858;3.964;2023-03-31T00:11:10;17.37;;;3.70;;
18176;SDS011;9213;50.858;3.964;2023-03-31T00:13:37;12.87;;;4.03;;
18176;SDS011;9213;50.858;3.964;2023-03-31T00:16:05;11.13;;;3.00;;
18176;SDS011;9213;50.858;3.964;2023-03-31T00:18:34;8.80;;;2.63;;
18176;SDS011;9213;50.858;3.964;2023-03-31T00:21:05;14.00;;;3.00;;
18176;SDS011;9213;50.858;3.964;2023-03-31T00:23:38;11.20;;;2.43;;
18176;SDS011;9213;50.858;3.964;2023-03-31T00:26:05;16.33;;;2.87;;
18176;SDS011;9213;50.858;3.964;2023-03-31T00:28:34;17.97;;;2.80;;
18176;SDS011;9213;50.858;3.964;2023-03-31T00:31:02;13.90;;;2.70;;
18176;SDS011;9213;50.858;3.964;2023-03-31T00:33:29;12.40;;;3.10;;
18176;SDS011;9213;50.858;3.964;2023-03-31T00:35:56;11.53;;;2.87;;
18176;SDS011;9213;50.858;3.964;2023-03-31T00:38:26;15.33;;;2.70;;
18176;SDS011;9213;50.858;3.964;2023-03-31T00:40:54;10.87;;;2.83;;
18176;SDS011;9213;50.858;3.964;2023-03-31T00:43:26;12.23;;;2.53;;
18176;SDS011;9213;50.858;3.964;2023-03-31T00:45:58;12.23;;;2.67;;
18176;SDS011;9213;50.858;3.964;2023-03-31T00:48:39;18.40;;;3.00;;
18176;SDS011;9213;50.858;3.964;2023-03-31T00:51:10;15.67;;;3.90;;
18176;SDS011;9213;50.858;3.964;2023-03-31T00:53:37;13.83;;;3.13;;
18176;SDS011;9213;50.858;3.964;2023-03-31T00:56:05;9.40;;;2.50;;
18176;SDS011;9213;50.858;3.964;2023-03-31T00:58:36;10.50;;;2.80;;
18176;SDS011;9213;50.858;3.964;2023-03-31T01:01:09;14.70;;;3.07;;
18176;SDS011;9213;50.858;3.964;2023-03-31T01:03:40;15.87;;;3.37;;
18176;SDS011;9213;50.858;3.964;2023-03-31T01:06:11;15.50;;;3.77;;
18176;SDS011;9213;50.858;3.964;2023-03-31T01:08:40;15.00;;;3.00;;
18176;SDS011;9213;50.858;3.964;2023-03-31T01:11:09;14.13;;;3.40;;
18176;SDS011;9213;50.858;3.964;2023-03-31T01:13:40;17.83;;;3.40;;
18176;SDS011;9213;50.858;3.964;2023-03-31T01:16:11;12.93;;;3.00;;
18176;SDS011;9213;50.858;3.964;2023-03-31T01:18:38;18.13;;;3.90;;
18176;SDS011;9213;50.858;3.964;2023-03-31T01:27:21;17.43;;;3.33;;
18176;SDS011;9213;50.858;3.964;2023-03-31T01:30:07;12.23;;;2.60;;
18176;SDS011;9213;50.858;3.964;2023-03-31T01:36:15;9.47;;;2.50;;
18176;SDS011;9213;50.858;3.964;2023-03-31T01:39:25;16.37;;;2.50;;
18176;SDS011;9213;50.858;3.964;2023-03-31T01:42:21;13.87;;;2.83;;
18176;SDS011;9213;50.858;3.964;2023-03-31T01:45:00;8.73;;;2.10;;
18176;SDS011;9213;50.858;3.964;2023-03-31T01:47:34;10.07;;;2.47;;
18176;SDS011;9213;50.858;3.964;2023-03-31T01:50:05;9.57;;;2.27;;
18176;SDS011;9213;50.858;3.964;2023-03-31T01:52:37;10.93;;;2.50;;
18176;SDS011;9213;50.858;3.964;2023-03-31T01:55:10;11.37;;;2.87;;
18176;SDS011;9213;50.858;3.964;2023-03-31T01:57:47;16.27;;;2.63;;
18176;SDS011;9213;50.858;3.964;2023-03-31T02:00:18;10.60;;;2.27;;
18176;SDS011;9213;50.858;3.964;2023-03-31T02:02:52;7.90;;;2.77;;
18176;SDS011;9213;50.858;3.964;2023-03-31T02:05:24;11.70;;;2.60;;
18176;SDS011;9213;50.858;3.964;2023-03-31T02:07:53;9.93;;;2.80;;
18176;SDS011;9213;50.858;3.964;2023-03-31T02:10:23;12.67;;;2.50;;
18176;SDS011;9213;50.858;3.964;2023-03-31T02:12:56;11.17;;;2.73;;
18176;SDS011;9213;50.858;3.964;2023-03-31T02:15:25;10.13;;;2.53;;
18176;SDS011;9213;50.858;3.964;2023-03-31T02:17:56;15.47;;;3.07;;
18176;SDS011;9213;50.858;3.964;2023-03-31T02:20:24;13.40;;;2.50;;
18176;SDS011;9213;50.858;3.964;2023-03-31T02:22:56;13.97;;;3.03;;
18176;SDS011;9213;50.858;3.964;2023-03-31T02:25:27;12.67;;;3.27;;
18176;SDS011;9213;50.858;3.964;2023-03-31T02:27:59;12.30;;;3.03;;
18176;SDS011;9213;50.858;3.964;2023-03-31T02:30:32;10.17;;;3.00;;
18176;SDS011;9213;50.858;3.964;2023-03-31T02:33:06;12.57;;;2.80;;
18176;SDS011;9213;50.858;3.964;2023-03-31T02:35:33;14.57;;;2.93;;
18176;SDS011;9213;50.858;3.964;2023-03-31T02:38:00;14.13;;;2.60;;
18176;SDS011;9213;50.858;3.964;2023-03-31T02:40:30;11.60;;;2.73;;
18176;SDS011;9213;50.858;3.964;2023-03-31T02:42:59;11.63;;;2.37;;
18176;SDS011;9213;50.858;3.964;2023-03-31T02:45:37;10.90;;;2.90;;
18176;SDS011;9213;50.858;3.964;2023-03-31T02:48:07;14.23;;;2.47;;
18176;SDS011;9213;50.858;3.964;2023-03-31T02:50:43;10.93;;;2.57;;
18176;SDS011;9213;50.858;3.964;2023-03-31T02:53:24;12.47;;;2.80;;
18176;SDS011;9213;50.858;3.964;2023-03-31T02:56:07;13.03;;;2.73;;
18176;SDS011;9213;50.858;3.964;2023-03-31T02:59:08;14.03;;;2.77;;
18176;SDS011;9213;50.858;3.964;2023-03-31T03:01:56;15.97;;;3.00;;
18176;SDS011;9213;50.858;3.964;2023-03-31T03:04:47;10.77;;;2.70;;
18176;SDS011;9213;50.858;3.964;2023-03-31T03:07:35;13.00;;;3.27;;
18176;SDS011;9213;50.858;3.964;2023-03-31T03:10:11;9.70;;;2.20;;
18176;SDS011;9213;50.858;3.964;2023-03-31T03:12:47;7.83;;;1.77;;
18176;SDS011;9213;50.858;3.964;2023-03-31T03:15:22;6.43;;;1.80;;
18176;SDS011;9213;50.858;3.964;2023-03-31T03:17:53;3.40;;;1.20;;
18176;SDS011;9213;50.858;3.964;2023-03-31T03:20:21;3.13;;;1.50;;
18176;SDS011;9213;50.858;3.964;2023-03-31T03:22:49;4.73;;;1.40;;
18176;SDS011;9213;50.858;3.964;2023-03-31T03:25:16;6.33;;;1.57;;
18176;SDS011;9213;50.858;3.964;2023-03-31T03:27:44;6.80;;;2.20;;
18176;SDS011;9213;50.858;3.964;2023-03-31T03:30:12;5.83;;;1.80;;
18176;SDS011;9213;50.858;3.964;2023-03-31T03:32:41;5.83;;;1.20;;
18176;SDS011;9213;50.858;3.964;2023-03-31T03:35:08;4.13;;;0.97;;
18176;SDS011;9213;50.858;3.964;2023-03-31T03:37:35;4.73;;;1.70;;
18176;SDS011;9213;50.858;3.964;2023-03-31T03:40:03;5.13;;;1.30;;
18176;SDS011;9213;50.858;3.964;2023-03-31T03:42:31;3.13;;;1.50;;
18176;SDS011;9213;50.858;3.964;2023-03-31T03:44:58;5.17;;;1.83;;
18176;SDS011;9213;50.858;3.964;2023-03-31T03:47:26;6.50;;;2.53;;
18176;SDS011;9213;50.858;3.964;2023-03-31T03:49:55;3.93;;;1.30;;
18176;SDS011;9213;50.858;3.964;2023-03-31T03:52:22;5.33;;;1.57;;
18176;SDS011;9213;50.858;3.964;2023-03-31T03:54:49;3.87;;;1.27;;
18176;SDS011;9213;50.858;3.964;2023-03-31T03:57:16;5.03;;;1.20;;
18176;SDS011;9213;50.858;3.964;2023-03-31T03:59:43;3.70;;;1.07;;
18176;SDS011;9213;50.858;3.964;2023-03-31T04:02:10;4.00;;;0.90;;
18176;SDS011;9213;50.858;3.964;2023-03-31T04:04:37;2.93;;;1.10;;
18176;SDS011;9213;50.858;3.964;2023-03-31T04:07:05;2.53;;;1.00;;
18176;SDS011;9213;50.858;3.964;2023-03-31T04:09:32;3.97;;;0.90;;
18176;SDS011;9213;50.858;3.964;2023-03-31T04:11:59;2.83;;;1.20;;
18176;SDS011;9213;50.858;3.964;2023-03-31T04:14:26;4.03;;;1.20;;
18176;SDS011;9213;50.858;3.964;2023-03-31T04:16:53;2.77;;;1.20;;
18176;SDS011;9213;50.858;3.964;2023-03-31T04:19:22;7.10;;;1.40;;
18176;SDS011;9213;50.858;3.964;2023-03-31T04:21:51;7.37;;;1.40;;
18176;SDS011;9213;50.858;3.964;2023-03-31T04:24:28;4.57;;;1.33;;
18176;SDS011;9213;50.858;3.964;2023-03-31T04:26:57;2.90;;;1.53;;
18176;SDS011;9213;50.858;3.964;2023-03-31T04:29:26;6.97;;;1.73;;
18176;SDS011;9213;50.858;3.964;2023-03-31T04:31:57;7.83;;;1.80;;
18176;SDS011;9213;50.858;3.964;2023-03-31T04:34:25;13.73;;;2.00;;
18176;SDS011;9213;50.858;3.964;2023-03-31T04:36:58;5.13;;;2.10;;
18176;SDS011;9213;50.858;3.964;2023-03-31T04:39:28;9.50;;;2.63;;
18176;SDS011;9213;50.858;3.964;2023-03-31T04:41:56;8.93;;;2.50;;
18176;SDS011;9213;50.858;3.964;2023-03-31T04:44:23;12.73;;;2.90;;
18176;SDS011;9213;50.858;3.964;2023-03-31T04:46:51;10.57;;;2.53;;
18176;SDS011;9213;50.858;3.964;2023-03-31T04:49:18;15.40;;;2.97;;
18176;SDS011;9213;50.858;3.964;2023-03-31T04:51:45;14.90;;;4.07;;
18176;SDS011;9213;50.858;3.964;2023-03-31T04:54:12;18.90;;;4.30;;
18176;SDS011;9213;50.858;3.964;2023-03-31T04:56:40;11.73;;;3.93;;
18176;SDS011;9213;50.858;3.964;2023-03-31T04:59:07;20.97;;;3.87;;
18176;SDS011;9213;50.858;3.964;2023-03-31T05:01:35;18.20;;;3.33;;
18176;SDS011;9213;50.858;3.964;2023-03-31T05:04:02;21.77;;;4.47;;
18176;SDS011;9213;50.858;3.964;2023-03-31T05:06:29;15.07;;;3.63;;
18176;SDS011;9213;50.858;3.964;2023-03-31T05:08:56;22.90;;;4.13;;
18176;SDS011;9213;50.858;3.964;2023-03-31T05:11:23;17.37;;;3.80;;
18176;SDS011;9213;50.858;3.964;2023-03-31T05:13:52;15.77;;;3.77;;
18176;SDS011;9213;50.858;3.964;2023-03-31T05:16:19;17.53;;;4.37;;
18176;SDS011;9213;50.858;3.964;2023-03-31T05:18:46;18.43;;;3.93;;
18176;SDS011;9213;50.858;3.964;2023-03-31T05:21:14;20.07;;;3.60;;
18176;SDS011;9213;50.858;3.964;2023-03-31T05:23:43;18.43;;;3.93;;
18176;SDS011;9213;50.858;3.964;2023-03-31T05:26:10;17.83;;;4.00;;
18176;SDS011;9213;50.858;3.964;2023-03-31T05:28:38;17.90;;;3.27;;
18176;SDS011;9213;50.858;3.964;2023-03-31T05:31:07;18.90;;;3.70;;
18176;SDS011;9213;50.858;3.964;2023-03-31T05:33:35;14.00;;;3.77;;
18176;SDS011;9213;50.858;3.964;2023-03-31T05:36:06;17.50;;;4.30;;
18176;SDS011;9213;50.858;3.964;2023-03-31T05:38:34;19.17;;;3.90;;
18176;SDS011;9213;50.858;3.964;2023-03-31T05:41:00;12.57;;;3.73;;
18176;SDS011;9213;50.858;3.964;2023-03-31T05:43:27;16.27;;;3.80;;
18176;SDS011;9213;50.858;3.964;2023-03-31T05:45:55;18.27;;;4.30;;
18176;SDS011;9213;50.858;3.964;2023-03-31T05:48:23;17.53;;;4.53;;
18176;SDS011;9213;50.858;3.964;2023-03-31T05:50:50;20.33;;;4.07;;
18176;SDS011;9213;50.858;3.964;2023-03-31T05:53:17;18.80;;;4.20;;
18176;SDS011;9213;50.858;3.964;2023-03-31T05:55:44;13.80;;;3.30;;
18176;SDS011;9213;50.858;3.964;2023-03-31T05:58:11;14.17;;;3.63;;
18176;SDS011;9213;50.858;3.964;2023-03-31T06:00:38;17.77;;;3.57;;
18176;SDS011;9213;50.858;3.964;2023-03-31T06:03:05;18.57;;;3.63;;
18176;SDS011;9213;50.858;3.964;2023-03-31T06:05:34;18.37;;;3.63;;
18176;SDS011;9213;50.858;3.964;2023-03-31T06:08:01;15.77;;;4.10;;
18176;SDS011;9213;50.858;3.964;2023-03-31T06:10:28;20.83;;;3.77;;
18176;SDS011;9213;50.858;3.964;2023-03-31T06:12:55;17.73;;;3.70;;
18176;SDS011;9213;50.858;3.964;2023-03-31T06:15:22;18.67;;;4.10;;
18176;SDS011;9213;50.858;3.964;2023-03-31T06:17:49;17.00;;;4.67;;
18176;SDS011;9213;50.858;3.964;2023-03-31T06:20:16;18.40;;;3.83;;
18176;SDS011;9213;50.858;3.964;2023-03-31T06:22:45;23.30;;;7.17;;
18176;SDS011;9213;50.858;3.964;2023-03-31T06:25:11;19.03;;;4.23;;
18176;SDS011;9213;50.858;3.964;2023-03-31T06:27:38;18.93;;;4.40;;
18176;SDS011;9213;50.858;3.964;2023-03-31T06:30:06;21.53;;;4.83;;
18176;SDS011;9213;50.858;3.964;2023-03-31T06:32:34;15.60;;;3.93;;
18176;SDS011;9213;50.858;3.964;2023-03-31T06:35:01;21.43;;;5.90;;
18176;SDS011;9213;50.858;3.964;2023-03-31T06:37:28;13.50;;;4.10;;
18176;SDS011;9213;50.858;3.964;2023-03-31T06:39:56;15.90;;;4.27;;
18176;SDS011;9213;50.858;3.964;2023-03-31T06:42:23;22.47;;;3.97;;
18176;SDS011;9213;50.858;3.964;2023-03-31T06:44:50;13.33;;;3.83;;
18176;SDS011;9213;50.858;3.964;2023-03-31T06:47:19;19.60;;;4.03;;
18176;SDS011;9213;50.858;3.964;2023-03-31T06:49:46;18.50;;;4.77;;
18176;SDS011;9213;50.858;3.964;2023-03-31T06:52:13;23.90;;;4.00;;
18176;SDS011;9213;50.858;3.964;2023-03-31T06:54:40;22.70;;;3.80;;
18176;SDS011;9213;50.858;3.964;2023-03-31T06:57:08;15.07;;;4.03;;
18176;SDS011;9213;50.858;3.964;2023-03-31T06:59:35;14.63;;;4.30;;
18176;SDS011;9213;50.858;3.964;2023-03-31T07:02:02;20.27;;;3.90;;
18176;SDS011;9213;50.858;3.964;2023-03-31T07:04:29;20.37;;;4.13;;
18176;SDS011;9213;50.858;3.964;2023-03-31T07:06:56;13.63;;;3.67;;
18176;SDS011;9213;50.858;3.964;2023-03-31T07:09:23;20.17;;;4.07;;
18176;SDS011;9213;50.858;3.964;2023-03-31T07:11:50;17.83;;;3.87;;
18176;SDS011;9213;50.858;3.964;2023-03-31T07:14:19;16.23;;;3.77;;
18176;SDS011;9213;50.858;3.964;2023-03-31T07:16:46;15.20;;;3.70;;
18176;SDS011;9213;50.858;3.964;2023-03-31T07:19:14;15.03;;;3.93;;
18176;SDS011;9213;50.858;3.964;2023-03-31T07:21:41;19.93;;;4.20;;
18176;SDS011;9213;50.858;3.964;2023-03-31T07:24:08;18.90;;;3.80;;
18176;SDS011;9213;50.858;3.964;2023-03-31T07:26:35;19.53;;;4.03;;
18176;SDS011;9213;50.858;3.964;2023-03-31T07:29:02;20.20;;;4.03;;
18176;SDS011;9213;50.858;3.964;2023-03-31T07:31:30;19.90;;;3.83;;
18176;SDS011;9213;50.858;3.964;2023-03-31T07:33:57;17.17;;;3.77;;
18176;SDS011;9213;50.858;3.964;2023-03-31T07:36:26;19.93;;;3.70;;
18176;SDS011;9213;50.858;3.964;2023-03-31T07:38:53;17.10;;;3.67;;
18176;SDS011;9213;50.858;3.964;2023-03-31T07:41:20;20.27;;;4.13;;
18176;SDS011;9213;50.858;3.964;2023-03-31T07:43:48;23.27;;;4.00;;
18176;SDS011;9213;50.858;3.964;2023-03-31T07:46:16;16.33;;;4.10;;
18176;SDS011;9213;50.858;3.964;2023-03-31T07:48:46;17.23;;;4.27;;
18176;SDS011;9213;50.858;3.964;2023-03-31T07:51:14;20.97;;;3.70;;
18176;SDS011;9213;50.858;3.964;2023-03-31T07:53:42;20.93;;;3.90;;
18176;SDS011;9213;50.858;3.964;2023-03-31T07:56:10;14.87;;;3.70;;
18176;SDS011;9213;50.858;3.964;2023-03-31T07:58:37;21.93;;;4.10;;
18176;SDS011;9213;50.858;3.964;2023-03-31T08:01:04;14.27;;;3.53;;
18176;SDS011;9213;50.858;3.964;2023-03-31T08:03:31;18.57;;;4.93;;
18176;SDS011;9213;50.858;3.964;2023-03-31T08:06:00;16.90;;;3.43;;
18176;SDS011;9213;50.858;3.964;2023-03-31T08:08:27;16.23;;;4.13;;
18176;SDS011;9213;50.858;3.964;2023-03-31T08:10:54;20.80;;;3.90;;
18176;SDS011;9213;50.858;3.964;2023-03-31T08:13:21;19.90;;;3.77;;
18176;SDS011;9213;50.858;3.964;2023-03-31T08:15:48;14.67;;;4.37;;
18176;SDS011;9213;50.858;3.964;2023-03-31T08:18:15;16.13;;;3.10;;
18176;SDS011;9213;50.858;3.964;2023-03-31T08:20:42;25.80;;;4.10;;
18176;SDS011;9213;50.858;3.964;2023-03-31T08:23:10;22.60;;;3.60;;
18176;SDS011;9213;50.858;3.964;2023-03-31T08:25:37;16.97;;;3.43;;
18176;SDS011;9213;50.858;3.964;2023-03-31T08:28:04;20.27;;;3.80;;
18176;SDS011;9213;50.858;3.964;2023-03-31T08:30:35;17.63;;;3.20;;
18176;SDS011;9213;50.858;3.964;2023-03-31T08:33:03;14.87;;;3.53;;
18176;SDS011;9213;50.858;3.964;2023-03-31T08:35:31;16.97;;;3.57;;
18176;SDS011;9213;50.858;3.964;2023-03-31T08:37:58;17.10;;;4.80;;
18176;SDS011;9213;50.858;3.964;2023-03-31T08:40:27;14.53;;;3.23;;
18176;SDS011;9213;50.858;3.964;2023-03-31T08:42:56;19.30;;;3.80;;
18176;SDS011;9213;50.858;3.964;2023-03-31T08:45:28;16.27;;;3.30;;
18176;SDS011;9213;50.858;3.964;2023-03-31T08:47:59;17.67;;;4.07;;
18176;SDS011;9213;50.858;3.964;2023-03-31T08:50:29;11.27;;;3.63;;
18176;SDS011;9213;50.858;3.964;2023-03-31T08:53:02;14.90;;;3.20;;
18176;SDS011;9213;50.858;3.964;2023-03-31T08:55:33;16.77;;;4.60;;
18176;SDS011;9213;50.858;3.964;2023-03-31T08:58:05;13.97;;;3.63;;
18176;SDS011;9213;50.858;3.964;2023-03-31T09:00:39;20.80;;;5.20;;
18176;SDS011;9213;50.858;3.964;2023-03-31T09:03:13;13.43;;;4.30;;
18176;SDS011;9213;50.858;3.964;2023-03-31T09:05:50;20.67;;;4.07;;
18176;SDS011;9213;50.858;3.964;2023-03-31T09:08:30;18.87;;;4.47;;
18176;SDS011;9213;50.858;3.964;2023-03-31T09:11:03;19.67;;;3.77;;
18176;SDS011;9213;50.858;3.964;2023-03-31T09:13:41;16.83;;;4.10;;
18176;SDS011;9213;50.858;3.964;2023-03-31T09:16:32;17.73;;;3.87;;
18176;SDS011;9213;50.858;3.964;2023-03-31T09:19:07;15.30;;;3.90;;
18176;SDS011;9213;50.858;3.964;2023-03-31T09:21:42;18.03;;;4.23;;
18176;SDS011;9213;50.858;3.964;2023-03-31T09:24:12;19.83;;;4.43;;
18176;SDS011;9213;50.858;3.964;2023-03-31T09:26:43;22.63;;;4.07;;
18176;SDS011;9213;50.858;3.964;2023-03-31T09:29:14;19.07;;;4.13;;
18176;SDS011;9213;50.858;3.964;2023-03-31T09:31:44;22.77;;;4.03;;
18176;SDS011;9213;50.858;3.964;2023-03-31T09:34:12;19.03;;;4.60;;
18176;SDS011;9213;50.858;3.964;2023-03-31T09:36:41;24.53;;;4.13;;
18176;SDS011;9213;50.858;3.964;2023-03-31T09:39:10;15.30;;;4.00;;
18176;SDS011;9213;50.858;3.964;2023-03-31T09:41:39;23.87;;;4.77;;
18176;SDS011;9213;50.858;3.964;2023-03-31T09:44:22;20.80;;;4.67;;
18176;SDS011;9213;50.858;3.964;2023-03-31T09:46:53;22.37;;;4.10;;
18176;SDS011;9213;50.858;3.964;2023-03-31T09:49:21;27.57;;;5.70;;
18176;SDS011;9213;50.858;3.964;2023-03-31T09:51:58;23.93;;;4.73;;
18176;SDS011;9213;50.858;3.964;2023-03-31T09:54:30;21.93;;;4.27;;
18176;SDS011;9213;50.858;3.964;2023-03-31T09:57:04;22.00;;;3.80;;
18176;SDS011;9213;50.858;3.964;2023-03-31T09:59:40;16.50;;;3.60;;
18176;SDS011;9213;50.858;3.964;2023-03-31T10:05:01;18.30;;;3.83;;
18176;SDS011;9213;50.858;3.964;2023-03-31T10:07:29;17.17;;;3.90;;
18176;SDS011;9213;50.858;3.964;2023-03-31T10:09:56;16.43;;;4.27;;
18176;SDS011;9213;50.858;3.964;2023-03-31T10:12:25;24.10;;;4.23;;
18176;SDS011;9213;50.858;3.964;2023-03-31T10:15:01;16.13;;;3.70;;
18176;SDS011;9213;50.858;3.964;2023-03-31T10:17:41;17.17;;;4.37;;
18176;SDS011;9213;50.858;3.964;2023-03-31T10:20:16;18.73;;;3.73;;
18176;SDS011;9213;50.858;3.964;2023-03-31T10:22:46;20.23;;;4.63;;
18176;SDS011;9213;50.858;3.964;2023-03-31T10:25:14;14.17;;;4.13;;
18176;SDS011;9213;50.858;3.964;2023-03-31T10:27:47;21.77;;;5.40;;
18176;SDS011;9213;50.858;3.964;2023-03-31T10:30:19;19.40;;;3.80;;
18176;SDS011;9213;50.858;3.964;2023-03-31T10:32:48;14.00;;;3.47;;
18176;SDS011;9213;50.858;3.964;2023-03-31T10:35:20;16.40;;;4.07;;
18176;SDS011;9213;50.858;3.964;2023-03-31T10:37:52;12.73;;;3.60;;
18176;SDS011;9213;50.858;3.964;2023-03-31T10:40:23;18.60;;;4.30;;
18176;SDS011;9213;50.858;3.964;2023-03-31T10:43:02;14.93;;;3.33;;
18176;SDS011;9213;50.858;3.964;2023-03-31T10:45:40;15.70;;;3.10;;
18176;SDS011;9213;50.858;3.964;2023-03-31T10:48:16;20.27;;;4.17;;
18176;SDS011;9213;50.858;3.964;2023-03-31T10:50:44;15.70;;;3.10;;
18176;SDS011;9213;50.858;3.964;2023-03-31T10:53:13;12.53;;;3.13;;
18176;SDS011;9213;50.858;3.964;2023-03-31T10:55:45;17.40;;;3.30;;
18176;SDS011;9213;50.858;3.964;2023-03-31T10:58:26;15.37;;;3.40;;
18176;SDS011;9213;50.858;3.964;2023-03-31T11:01:11;15.47;;;4.00;;
18176;SDS011;9213;50.858;3.964;2023-03-31T11:06:48;15.47;;;3.00;;
18176;SDS011;9213;50.858;3.964;2023-03-31T11:09:28;9.67;;;2.80;;
18176;SDS011;9213;50.858;3.964;2023-03-31T11:12:07;14.20;;;4.07;;
18176;SDS011;9213;50.858;3.964;2023-03-31T11:14:49;16.23;;;3.67;;
18176;SDS011;9213;50.858;3.964;2023-03-31T11:17:31;13.27;;;3.00;;
18176;SDS011;9213;50.858;3.964;2023-03-31T11:20:11;15.23;;;3.17;;
18176;SDS011;9213;50.858;3.964;2023-03-31T11:22:45;14.37;;;3.47;;
18176;SDS011;9213;50.858;3.964;2023-03-31T11:25:21;13.87;;;2.93;;
18176;SDS011;9213;50.858;3.964;2023-03-31T11:27:56;12.30;;;3.03;;
18176;SDS011;9213;50.858;3.964;2023-03-31T11:30:47;12.20;;;3.07;;
18176;SDS011;9213;50.858;3.964;2023-03-31T11:33:25;10.40;;;2.70;;
18176;SDS011;9213;50.858;3.964;2023-03-31T11:36:06;13.07;;;2.83;;
18176;SDS011;9213;50.858;3.964;2023-03-31T11:38:46;10.00;;;2.23;;
18176;SDS011;9213;50.858;3.964;2023-03-31T11:41:27;13.87;;;2.77;;
18176;SDS011;9213;50.858;3.964;2023-03-31T11:43:59;10.30;;;2.60;;
18176;SDS011;9213;50.858;3.964;2023-03-31T11:46:33;10.40;;;2.20;;
18176;SDS011;9213;50.858;3.964;2023-03-31T11:49:07;8.37;;;2.70;;
18176;SDS011;9213;50.858;3.964;2023-03-31T11:51:41;12.07;;;3.33;;
18176;SDS011;9213;50.858;3.964;2023-03-31T11:54:15;9.30;;;2.87;;
18176;SDS011;9213;50.858;3.964;2023-03-31T11:56:45;7.77;;;2.10;;
18176;SDS011;9213;50.858;3.964;2023-03-31T11:59:13;10.93;;;2.87;;
18176;SDS011;9213;50.858;3.964;2023-03-31T12:01:44;4.83;;;2.10;;
18176;SDS011;9213;50.858;3.964;2023-03-31T12:04:21;5.77;;;2.10;;
18176;SDS011;9213;50.858;3.964;2023-03-31T12:06:57;10.90;;;2.07;;
18176;SDS011;9213;50.858;3.964;2023-03-31T12:09:29;5.03;;;1.90;;
18176;SDS011;9213;50.858;3.964;2023-03-31T12:12:04;8.10;;;1.70;;
18176;SDS011;9213;50.858;3.964;2023-03-31T12:14:36;8.23;;;2.13;;
18176;SDS011;9213;50.858;3.964;2023-03-31T12:17:09;8.83;;;2.33;;
18176;SDS011;9213;50.858;3.964;2023-03-31T12:19:41;11.53;;;2.60;;
18176;SDS011;9213;50.858;3.964;2023-03-31T12:22:13;9.27;;;2.53;;
18176;SDS011;9213;50.858;3.964;2023-03-31T12:24:44;5.57;;;1.67;;
18176;SDS011;9213;50.858;3.964;2023-03-31T12:27:12;6.63;;;1.90;;
18176;SDS011;9213;50.858;3.964;2023-03-31T12:29:43;10.33;;;2.10;;
18176;SDS011;9213;50.858;3.964;2023-03-31T12:32:15;7.13;;;1.70;;
18176;SDS011;9213;50.858;3.964;2023-03-31T12:34:47;9.87;;;1.90;;
18176;SDS011;9213;50.858;3.964;2023-03-31T12:40:28;6.27;;;2.10;;
18176;SDS011;9213;50.858;3.964;2023-03-31T12:43:18;9.60;;;2.23;;
18176;SDS011;9213;50.858;3.964;2023-03-31T12:45:54;6.97;;;1.80;;
18176;SDS011;9213;50.858;3.964;2023-03-31T12:48:44;7.87;;;1.80;;
18176;SDS011;9213;50.858;3.964;2023-03-31T12:51:23;7.27;;;1.63;;
18176;SDS011;9213;50.858;3.964;2023-03-31T12:54:18;3.70;;;1.20;;
18176;SDS011;9213;50.858;3.964;2023-03-31T12:57:02;4.93;;;1.50;;
18176;SDS011;9213;50.858;3.964;2023-03-31T12:59:37;3.40;;;1.80;;
18176;SDS011;9213;50.858;3.964;2023-03-31T13:02:24;6.97;;;2.17;;
18176;SDS011;9213;50.858;3.964;2023-03-31T13:04:53;3.70;;;1.80;;
18176;SDS011;9213;50.858;3.964;2023-03-31T13:07:33;4.90;;;1.40;;
18176;SDS011;9213;50.858;3.964;2023-03-31T13:12:56;2.93;;;1.43;;
18176;SDS011;9213;50.858;3.964;2023-03-31T13:15:28;3.40;;;0.90;;
18176;SDS011;9213;50.858;3.964;2023-03-31T13:17:56;4.43;;;1.20;;
18176;SDS011;9213;50.858;3.964;2023-03-31T13:20:36;3.03;;;1.30;;
18176;SDS011;9213;50.858;3.964;2023-03-31T13:23:06;2.10;;;1.10;;
18176;SDS011;9213;50.858;3.964;2023-03-31T13:25:44;0.87;;;0.87;;
18176;SDS011;9213;50.858;3.964;2023-03-31T13:28:32;2.50;;;1.07;;
18176;SDS011;9213;50.858;3.964;2023-03-31T13:31:04;2.07;;;0.67;;
18176;SDS011;9213;50.858;3.964;2023-03-31T13:45:37;1.80;;;0.90;;
18176;SDS011;9213;50.858;3.964;2023-03-31T13:48:31;2.17;;;0.90;;
18176;SDS011;9213;50.858;3.964;2023-03-31T13:51:12;1.77;;;1.33;;
18176;SDS011;9213;50.858;3.964;2023-03-31T13:57:21;1.73;;;0.90;;
18176;SDS011;9213;50.858;3.964;2023-03-31T14:00:24;1.53;;;0.97;;
18176;SDS011;9213;50.858;3.964;2023-03-31T14:06:03;2.27;;;0.80;;
18176;SDS011;9213;50.858;3.964;2023-03-31T14:08:35;1.20;;;0.80;;
18176;SDS011;9213;50.858;3.964;2023-03-31T14:11:20;1.77;;;0.70;;
18176;SDS011;9213;50.858;3.964;2023-03-31T14:13:59;1.20;;;0.80;;
18176;SDS011;9213;50.858;3.964;2023-03-31T14:16:29;3.70;;;0.80;;
18176;SDS011;9213;50.858;3.964;2023-03-31T14:19:03;3.23;;;0.77;;
18176;SDS011;9213;50.858;3.964;2023-03-31T14:21:41;4.20;;;1.23;;
18176;SDS011;9213;50.858;3.964;2023-03-31T14:24:13;3.00;;;1.07;;
18176;SDS011;9213;50.858;3.964;2023-03-31T14:26:49;2.00;;;1.30;;
18176;SDS011;9213;50.858;3.964;2023-03-31T14:29:27;1.47;;;0.90;;
18176;SDS011;9213;50.858;3.964;2023-03-31T14:32:03;1.40;;;0.87;;
18176;SDS011;9213;50.858;3.964;2023-03-31T14:34:41;2.20;;;0.90;;
18176;SDS011;9213;50.858;3.964;2023-03-31T14:37:18;1.83;;;1.10;;
18176;SDS011;9213;50.858;3.964;2023-03-31T14:39:47;1.20;;;1.10;;
18176;SDS011;9213;50.858;3.964;2023-03-31T14:42:17;2.47;;;0.90;;
18176;SDS011;9213;50.858;3.964;2023-03-31T14:44:48;1.50;;;0.80;;
18176;SDS011;9213;50.858;3.964;2023-03-31T14:47:22;5.03;;;1.30;;
18176;SDS011;9213;50.858;3.964;2023-03-31T14:49:57;1.63;;;1.03;;
18176;SDS011;9213;50.858;3.964;2023-03-31T14:52:27;1.10;;;1.00;;
18176;SDS011;9213;50.858;3.964;2023-03-31T14:54:56;2.23;;;1.07;;
18176;SDS011;9213;50.858;3.964;2023-03-31T14:57:26;4.63;;;1.40;;
18176;SDS011;9213;50.858;3.964;2023-03-31T14:59:57;3.70;;;1.30;;
18176;SDS011;9213;50.858;3.964;2023-03-31T15:02:29;5.53;;;1.40;;
18176;SDS011;9213;50.858;3.964;2023-03-31T15:05:00;5.13;;;1.87;;
18176;SDS011;9213;50.858;3.964;2023-03-31T15:07:29;7.70;;;1.73;;
18176;SDS011;9213;50.858;3.964;2023-03-31T15:09:56;5.70;;;1.70;;
18176;SDS011;9213;50.858;3.964;2023-03-31T15:12:23;5.00;;;1.40;;
18176;SDS011;9213;50.858;3.964;2023-03-31T15:14:53;3.17;;;1.43;;
18176;SDS011;9213;50.858;3.964;2023-03-31T15:17:24;5.77;;;1.70;;
18176;SDS011;9213;50.858;3.964;2023-03-31T15:19:56;6.97;;;1.50;;
18176;SDS011;9213;50.858;3.964;2023-03-31T15:22:25;5.93;;;1.53;;
18176;SDS011;9213;50.858;3.964;2023-03-31T15:24:54;7.60;;;1.57;;
18176;SDS011;9213;50.858;3.964;2023-03-31T15:27:26;7.23;;;2.27;;
18176;SDS011;9213;50.858;3.964;2023-03-31T15:29:58;8.93;;;1.83;;
18176;SDS011;9213;50.858;3.964;2023-03-31T15:32:29;9.83;;;2.43;;
18176;SDS011;9213;50.858;3.964;2023-03-31T15:35:00;9.33;;;1.73;;
18176;SDS011;9213;50.858;3.964;2023-03-31T15:37:30;6.43;;;1.57;;
18176;SDS011;9213;50.858;3.964;2023-03-31T15:40:09;7.87;;;1.63;;
18176;SDS011;9213;50.858;3.964;2023-03-31T15:42:44;4.63;;;1.73;;
18176;SDS011;9213;50.858;3.964;2023-03-31T15:45:24;5.60;;;1.97;;
18176;SDS011;9213;50.858;3.964;2023-03-31T15:48:04;8.80;;;1.90;;
18176;SDS011;9213;50.858;3.964;2023-03-31T15:50:32;9.40;;;2.10;;
18176;SDS011;9213;50.858;3.964;2023-03-31T15:53:00;6.80;;;2.37;;
18176;SDS011;9213;50.858;3.964;2023-03-31T15:55:28;7.77;;;1.90;;
18176;SDS011;9213;50.858;3.964;2023-03-31T15:57:58;7.77;;;1.83;;
18176;SDS011;9213;50.858;3.964;2023-03-31T16:00:42;6.10;;;2.20;;